createdAt,value
2017-03-14T00:01:51.125Z,19.59
2017-03-14T00:02:44.940Z,19.62
2017-03-14T00:03:33.080Z,19.62
2017-03-14T00:04:38.304Z,19.63
2017-03-14T00:07:48.770Z,19.62
2017-03-14T00:07:54.538Z,19.64
2017-03-14T00:10:00.188Z,19.62
2017-03-14T00:11:18.393Z,19.63
2017-03-14T00:12:41.701Z,19.63
2017-03-14T00:15:24.809Z,19.59
2017-03-14T00:15:47.518Z,19.56
2017-03-14T00:19:35.149Z,19.46
2017-03-14T00:21:36.326Z,19.36
2017-03-14T00:23:44.501Z,19.38
2017-03-14T00:24:41.896Z,19.37
2017-03-14T00:25:41.673Z,19.34
2017-03-14T00:26:42.490Z,19.32
2017-03-14T00:27:33.489Z,19.32
2017-03-14T00:28:30.952Z,19.31
2017-03-14T00:29:55.183Z,19.29
2017-03-14T00:30:37.438Z,19.29
2017-03-14T00:31:37.899Z,19.28
2017-03-14T00:32:29.435Z,19.80
2017-03-14T00:33:38.860Z,19.82
2017-03-14T00:34:34.889Z,19.85
2017-03-14T00:35:40.169Z,19.50
2017-03-14T00:36:40.259Z,19.32
2017-03-14T00:37:33.229Z,19.26
2017-03-14T00:38:32.939Z,19.24
2017-03-14T00:39:43.349Z,19.24
2017-03-14T00:40:28.256Z,19.19
2017-03-14T00:41:45.406Z,19.17
2017-03-14T00:42:40.237Z,19.16
2017-03-14T00:43:40.048Z,19.14
2017-03-14T00:44:53.980Z,19.14
2017-03-14T00:45:32.957Z,19.13
2017-03-14T00:46:43.621Z,19.12
2017-03-14T00:47:33.672Z,19.11
2017-03-14T00:48:33.995Z,19.11
2017-03-14T00:49:26.352Z,19.10
2017-03-14T00:50:33.268Z,19.10
2017-03-14T00:51:34.707Z,19.10
2017-03-14T00:52:39.393Z,19.08
2017-03-14T00:53:39.841Z,19.08
2017-03-14T00:54:39.132Z,19.07
2017-03-14T00:55:39.561Z,19.05
2017-03-14T00:56:34.551Z,19.05
2017-03-14T00:57:39.292Z,19.04
2017-03-14T00:58:39.760Z,19.04
2017-03-14T00:59:33.589Z,19.04
2017-03-14T01:00:41.452Z,19.57
2017-03-14T01:01:48.419Z,19.63
2017-03-14T01:02:53.087Z,19.29
2017-03-14T01:03:51.056Z,19.14
2017-03-14T01:04:35.463Z,19.08
2017-03-14T01:05:39.180Z,19.05
2017-03-14T01:06:48.906Z,19.04
2017-03-14T01:07:42.225Z,19.04
2017-03-14T01:08:57.509Z,19.04
2017-03-14T01:09:42.439Z,19.04
2017-03-14T01:10:53.357Z,19.03
2017-03-14T01:11:51.487Z,19.01
2017-03-14T01:12:47.994Z,19.01
2017-03-14T01:13:53.106Z,19.53
2017-03-14T01:14:36.970Z,19.06
2017-03-14T01:15:34.476Z,19.04
2017-03-14T01:16:35.719Z,19.02
2017-03-14T01:17:40.112Z,19.02
2017-03-14T01:19:45.699Z,19.02
2017-03-14T01:20:44.490Z,19.02
2017-03-14T01:21:39.169Z,19.01
2017-03-14T01:23:00.671Z,19.00
2017-03-14T01:23:38.469Z,19.52
2017-03-14T01:24:39.704Z,19.59
2017-03-14T01:25:39.238Z,19.62
2017-03-14T01:26:41.139Z,19.64
2017-03-14T01:27:33.866Z,19.12
2017-03-14T01:28:45.718Z,19.05
2017-03-14T01:29:44.513Z,19.03
2017-03-14T01:30:47.402Z,19.02
2017-03-14T01:31:52.509Z,19.01
2017-03-14T01:32:43.207Z,18.99
2017-03-14T01:33:43.416Z,18.98
2017-03-14T01:34:37.356Z,18.98
2017-03-14T01:35:44.669Z,18.96
2017-03-14T01:36:37.017Z,18.96
2017-03-14T01:37:44.571Z,18.96
2017-03-14T01:38:40.042Z,18.95
2017-03-14T01:39:41.247Z,18.96
2017-03-14T01:40:44.029Z,19.00
2017-03-14T01:42:03.623Z,18.94
2017-03-14T01:42:47.641Z,18.95
2017-03-14T01:44:02.181Z,18.94
2017-03-14T01:45:06.347Z,18.94
2017-03-14T01:45:44.783Z,18.94
2017-03-14T01:46:42.139Z,18.94
2017-03-14T01:47:50.687Z,18.93
2017-03-14T01:49:00.758Z,18.94
2017-03-14T01:50:00.838Z,18.92
2017-03-14T01:52:04.689Z,18.93
2017-03-14T01:52:20.822Z,18.92
2017-03-14T01:53:23.457Z,18.91
2017-03-14T01:54:50.146Z,18.91
2017-03-14T01:56:41.146Z,18.90
2017-03-14T01:59:46.198Z,18.90
2017-03-14T02:00:31.180Z,18.89
2017-03-14T02:00:52.071Z,18.91
2017-03-14T02:01:50.772Z,18.88
2017-03-14T02:02:57.994Z,18.90
2017-03-14T02:06:25.035Z,18.88
2017-03-14T02:07:27.152Z,18.89
2017-03-14T02:08:14.452Z,18.88
2017-03-14T02:08:32.957Z,18.89
2017-03-14T02:09:43.395Z,18.88
2017-03-14T02:10:50.384Z,18.89
2017-03-14T02:13:40.230Z,18.84
2017-03-14T02:14:39.415Z,18.87
2017-03-14T02:15:34.279Z,18.89
2017-03-14T02:16:42.430Z,18.93
2017-03-14T02:17:43.411Z,18.88
2017-03-14T02:18:40.814Z,18.88
2017-03-14T02:19:45.416Z,18.88
2017-03-14T02:21:38.493Z,18.88
2017-03-14T02:23:52.200Z,18.85
2017-03-14T02:24:47.314Z,18.88
2017-03-14T02:25:45.350Z,18.87
2017-03-14T02:26:38.747Z,18.87
2017-03-14T02:27:44.184Z,18.87
2017-03-14T02:28:57.665Z,18.87
2017-03-14T02:29:40.488Z,18.87
2017-03-14T02:30:43.187Z,18.91
2017-03-14T02:31:33.621Z,18.86
2017-03-14T02:32:40.790Z,18.86
2017-03-14T02:33:41.922Z,18.85
2017-03-14T02:34:44.563Z,18.85
2017-03-14T02:35:39.340Z,18.85
2017-03-14T02:36:47.254Z,18.84
2017-03-14T02:38:44.486Z,18.85
2017-03-14T02:39:40.757Z,18.84
2017-03-14T02:40:32.514Z,18.88
2017-03-14T02:41:43.411Z,18.85
2017-03-14T02:42:42.541Z,18.85
2017-03-14T02:43:48.958Z,18.86
2017-03-14T02:44:40.003Z,18.86
2017-03-14T02:45:35.366Z,19.38
2017-03-14T02:47:02.324Z,18.90
2017-03-14T02:47:45.813Z,18.89
2017-03-14T02:48:38.694Z,18.88
2017-03-14T02:49:40.415Z,18.86
2017-03-14T02:50:40.090Z,18.86
2017-03-14T02:51:40.311Z,18.86
2017-03-14T02:52:38.646Z,18.85
2017-03-14T02:53:32.936Z,19.38
2017-03-14T02:54:38.715Z,19.43
2017-03-14T02:55:45.806Z,19.46
2017-03-14T02:56:35.066Z,18.94
2017-03-14T02:57:34.348Z,18.89
2017-03-14T02:58:35.030Z,18.87
2017-03-14T02:59:40.232Z,18.84
2017-03-14T03:00:39.295Z,18.85
2017-03-14T03:01:33.285Z,18.83
2017-03-14T03:02:48.944Z,18.83
2017-03-14T03:03:33.601Z,18.83
2017-03-14T03:04:33.596Z,18.82
2017-03-14T03:05:33.725Z,18.85
2017-03-14T03:06:33.604Z,18.84
2017-03-14T03:07:34.628Z,18.83
2017-03-14T03:08:42.811Z,18.84
2017-03-14T03:09:38.724Z,18.82
2017-03-14T03:10:38.092Z,18.82
2017-03-14T03:11:34.763Z,18.84
2017-03-14T03:12:46.964Z,18.81
2017-03-14T03:13:39.318Z,18.81
2017-03-14T03:14:33.389Z,18.79
2017-03-14T03:15:33.354Z,19.31
2017-03-14T03:16:40.242Z,19.38
2017-03-14T03:17:33.680Z,19.40
2017-03-14T03:18:45.727Z,19.43
2017-03-14T03:19:38.805Z,19.42
2017-03-14T03:20:39.221Z,19.43
2017-03-14T03:21:39.271Z,19.44
2017-03-14T03:22:35.057Z,19.43
2017-03-14T03:23:33.340Z,19.43
2017-03-14T03:24:38.677Z,19.44
2017-03-14T03:25:43.653Z,19.43
2017-03-14T03:26:38.708Z,19.42
2017-03-14T03:27:34.646Z,19.43
2017-03-14T03:28:33.616Z,19.43
2017-03-14T03:29:34.250Z,19.46
2017-03-14T03:30:39.478Z,19.45
2017-03-14T03:31:39.709Z,19.45
2017-03-14T03:32:39.939Z,19.45
2017-03-14T03:33:34.823Z,19.45
2017-03-14T03:34:38.707Z,19.45
2017-03-14T03:35:48.781Z,19.45
2017-03-14T03:36:32.888Z,19.44
2017-03-14T03:37:38.273Z,19.44
2017-03-14T03:38:45.868Z,19.43
2017-03-14T03:39:42.019Z,18.90
2017-03-14T03:40:33.351Z,18.84
2017-03-14T03:41:34.775Z,18.82
2017-03-14T03:42:34.549Z,18.78
2017-03-14T03:43:39.889Z,18.79
2017-03-14T03:44:34.449Z,18.77
2017-03-14T03:45:34.602Z,18.76
2017-03-14T03:46:46.197Z,18.76
2017-03-14T03:47:42.180Z,18.76
2017-03-14T03:48:33.936Z,18.84
2017-03-14T03:49:37.902Z,18.75
2017-03-14T03:50:38.734Z,18.74
2017-03-14T03:51:45.356Z,18.74
2017-03-14T03:52:34.793Z,18.75
2017-03-14T03:53:34.327Z,18.75
2017-03-14T03:54:40.231Z,18.75
2017-03-14T03:55:39.831Z,18.76
2017-03-14T03:56:38.781Z,18.75
2017-03-14T03:57:48.100Z,18.75
2017-03-14T03:58:34.435Z,18.75
2017-03-14T03:59:33.470Z,18.75
2017-03-14T04:00:38.651Z,18.75
2017-03-14T04:01:32.941Z,18.75
2017-03-14T04:02:34.322Z,18.74
2017-03-14T04:03:40.459Z,18.74
2017-03-14T04:04:40.851Z,18.74
2017-03-14T04:05:41.700Z,18.74
2017-03-14T04:06:34.483Z,18.74
2017-03-14T04:07:34.340Z,18.73
2017-03-14T04:08:41.309Z,18.74
2017-03-14T04:09:39.770Z,18.73
2017-03-14T04:10:40.913Z,18.73
2017-03-14T04:11:37.877Z,18.73
2017-03-14T04:12:37.354Z,18.73
2017-03-14T04:13:38.784Z,18.73
2017-03-14T04:14:34.513Z,18.73
2017-03-14T04:15:46.013Z,18.73
2017-03-14T04:16:35.220Z,18.74
2017-03-14T04:17:39.266Z,18.74
2017-03-14T04:18:34.485Z,18.73
2017-03-14T04:19:43.226Z,18.73
2017-03-14T04:20:33.201Z,18.72
2017-03-14T04:21:39.607Z,18.72
2017-03-14T04:22:33.148Z,18.72
2017-03-14T04:23:48.330Z,18.72
2017-03-14T04:24:50.569Z,18.72
2017-03-14T04:25:34.613Z,18.72
2017-03-14T04:26:38.741Z,18.72
2017-03-14T04:27:34.783Z,18.73
2017-03-14T04:28:38.732Z,18.79
2017-03-14T04:29:44.458Z,18.72
2017-03-14T04:30:34.303Z,18.73
2017-03-14T04:31:39.075Z,18.72
2017-03-14T04:32:42.201Z,18.71
2017-03-14T04:33:33.030Z,18.71
2017-03-14T04:34:32.924Z,18.70
2017-03-14T04:35:45.454Z,18.74
2017-03-14T04:36:35.564Z,18.72
2017-03-14T04:37:45.957Z,18.72
2017-03-14T04:38:40.308Z,18.70
2017-03-14T04:39:33.405Z,18.70
2017-03-14T04:40:34.721Z,18.70
2017-03-14T04:41:34.093Z,18.71
2017-03-14T04:42:39.343Z,18.70
2017-03-14T04:43:33.189Z,18.70
2017-03-14T04:44:37.367Z,18.70
2017-03-14T04:45:33.794Z,18.70
2017-03-14T04:46:39.959Z,18.70
2017-03-14T04:47:43.381Z,18.70
2017-03-14T04:48:35.130Z,18.69
2017-03-14T04:49:46.297Z,18.69
2017-03-14T04:50:40.117Z,18.69
2017-03-14T04:51:40.223Z,18.68
2017-03-14T04:52:41.801Z,18.68
2017-03-14T04:53:33.603Z,18.72
2017-03-14T04:54:33.066Z,18.68
2017-03-14T04:55:32.809Z,18.68
2017-03-14T04:56:32.959Z,18.68
2017-03-14T04:57:32.920Z,18.69
2017-03-14T04:58:34.209Z,18.69
2017-03-14T04:59:39.141Z,18.68
2017-03-14T05:00:41.110Z,18.68
2017-03-14T05:01:37.091Z,18.68
2017-03-14T05:02:38.824Z,18.68
2017-03-14T05:03:34.777Z,18.68
2017-03-14T05:04:34.875Z,18.68
2017-03-14T05:05:39.996Z,18.68
2017-03-14T05:06:34.754Z,18.68
2017-03-14T05:07:42.142Z,18.68
2017-03-14T05:08:33.558Z,18.67
2017-03-14T05:09:33.408Z,18.67
2017-03-14T05:10:34.505Z,19.14
2017-03-14T05:11:44.199Z,18.78
2017-03-14T05:12:44.393Z,19.24
2017-03-14T05:13:41.274Z,19.26
2017-03-14T05:14:42.136Z,19.29
2017-03-14T05:15:34.655Z,18.98
2017-03-14T05:16:35.250Z,18.78
2017-03-14T05:17:43.286Z,18.78
2017-03-14T05:18:33.285Z,18.71
2017-03-14T05:19:43.046Z,18.69
2017-03-14T05:20:42.136Z,18.69
2017-03-14T05:21:34.272Z,18.69
2017-03-14T05:22:46.157Z,18.68
2017-03-14T05:23:40.831Z,18.67
2017-03-14T05:24:35.237Z,18.66
2017-03-14T05:25:40.069Z,18.65
2017-03-14T05:26:39.756Z,18.66
2017-03-14T05:27:39.324Z,18.65
2017-03-14T05:28:32.825Z,18.66
2017-03-14T05:29:34.302Z,18.66
2017-03-14T05:30:38.734Z,18.71
2017-03-14T05:31:33.996Z,18.66
2017-03-14T05:32:34.573Z,18.65
2017-03-14T05:33:39.259Z,18.66
2017-03-14T05:34:39.251Z,18.65
2017-03-14T05:35:38.880Z,18.66
2017-03-14T05:36:48.576Z,18.64
2017-03-14T05:37:48.614Z,18.65
2017-03-14T05:38:33.436Z,18.64
2017-03-14T05:39:53.247Z,18.63
2017-03-14T05:40:31.457Z,18.63
2017-03-14T05:41:33.384Z,18.66
2017-03-14T05:42:39.006Z,18.68
2017-03-14T05:43:34.391Z,18.64
2017-03-14T05:44:45.750Z,18.64
2017-03-14T05:45:35.917Z,18.64
2017-03-14T05:46:39.373Z,18.70
2017-03-14T05:47:32.032Z,18.63
2017-03-14T05:48:39.806Z,18.63
2017-03-14T05:49:34.673Z,18.63
2017-03-14T05:50:42.638Z,18.63
2017-03-14T05:51:38.750Z,18.64
2017-03-14T05:52:32.825Z,18.64
2017-03-14T05:53:33.120Z,18.63
2017-03-14T05:54:42.986Z,18.64
2017-03-14T05:55:41.691Z,18.64
2017-03-14T05:56:41.039Z,18.63
2017-03-14T05:57:35.252Z,18.63
2017-03-14T05:58:34.619Z,18.63
2017-03-14T05:59:46.698Z,18.63
2017-03-14T06:00:23.577Z,18.61
2017-03-14T06:01:44.644Z,18.62
2017-03-14T06:02:44.254Z,18.64
2017-03-14T06:03:31.863Z,18.62
2017-03-14T06:04:31.937Z,18.62
2017-03-14T06:05:59.338Z,18.67
2017-03-14T06:06:42.372Z,18.61
2017-03-14T06:07:44.991Z,18.62
2017-03-14T06:08:34.078Z,18.61
2017-03-14T06:09:41.343Z,18.61
2017-03-14T06:10:45.077Z,18.62
2017-03-14T06:11:39.235Z,18.62
2017-03-14T06:13:58.030Z,18.67
2017-03-14T06:15:37.297Z,18.69
2017-03-14T06:16:33.895Z,18.86
2017-03-14T06:17:41.060Z,18.88
2017-03-14T06:19:28.783Z,18.86
2017-03-14T06:20:58.411Z,18.85
2017-03-14T06:21:44.540Z,18.84
2017-03-14T06:22:48.733Z,18.82
2017-03-14T06:25:44.895Z,18.79
2017-03-14T06:26:46.259Z,18.78
2017-03-14T06:27:58.395Z,18.76
2017-03-14T06:28:46.579Z,18.77
2017-03-14T06:30:31.303Z,19.31
2017-03-14T06:31:38.494Z,19.32
2017-03-14T06:32:44.545Z,19.34
2017-03-14T06:34:06.741Z,19.34
2017-03-14T06:35:00.935Z,18.98
2017-03-14T06:36:20.409Z,18.81
2017-03-14T06:36:52.497Z,18.75
2017-03-14T06:37:37.525Z,18.73
2017-03-14T06:38:27.863Z,18.71
2017-03-14T06:39:33.102Z,18.70
2017-03-14T06:40:38.901Z,18.71
2017-03-14T06:41:33.927Z,18.73
2017-03-14T06:42:34.312Z,18.77
2017-03-14T06:43:28.346Z,18.81
2017-03-14T06:44:20.074Z,18.84
2017-03-14T06:45:12.939Z,18.88
2017-03-14T06:46:18.667Z,18.90
2017-03-14T06:47:18.441Z,18.94
2017-03-14T06:48:32.645Z,18.95
2017-03-14T06:49:41.851Z,18.94
2017-03-14T06:50:38.927Z,18.95
2017-03-14T06:51:39.303Z,18.96
2017-03-14T06:52:34.141Z,18.96
2017-03-14T06:53:39.755Z,18.97
2017-03-14T06:54:33.590Z,18.97
2017-03-14T06:55:28.526Z,18.97
2017-03-14T06:56:42.859Z,18.97
2017-03-14T06:57:34.208Z,18.97
2017-03-14T06:58:39.753Z,18.97
2017-03-14T06:59:40.739Z,18.97
2017-03-14T07:00:26.426Z,18.97
2017-03-14T07:01:34.743Z,18.97
2017-03-14T07:02:38.792Z,18.99
2017-03-14T07:03:34.299Z,19.51
2017-03-14T07:04:30.009Z,19.56
2017-03-14T07:05:35.061Z,19.63
2017-03-14T07:06:33.617Z,19.15
2017-03-14T07:07:34.205Z,19.13
2017-03-14T07:08:34.930Z,19.15
2017-03-14T07:09:39.559Z,19.19
2017-03-14T07:10:53.547Z,19.21
2017-03-14T07:11:33.671Z,19.23
2017-03-14T07:12:33.200Z,19.28
2017-03-14T07:13:33.039Z,19.27
2017-03-14T07:14:34.345Z,19.29
2017-03-14T07:15:28.556Z,19.06
2017-03-14T07:16:34.916Z,18.85
2017-03-14T07:17:29.300Z,18.61
2017-03-14T07:18:39.805Z,18.40
2017-03-14T07:19:40.166Z,18.75
2017-03-14T07:20:39.608Z,18.57
2017-03-14T07:21:42.600Z,18.56
2017-03-14T07:22:48.349Z,18.66
2017-03-14T07:23:43.295Z,18.80
2017-03-14T07:24:39.063Z,18.91
2017-03-14T07:25:37.944Z,19.03
2017-03-14T07:26:34.450Z,18.77
2017-03-14T07:27:39.206Z,18.67
2017-03-14T07:28:46.127Z,18.68
2017-03-14T07:29:47.407Z,18.70
2017-03-14T07:30:33.882Z,18.75
2017-03-14T07:31:44.870Z,18.78
2017-03-14T07:32:38.661Z,18.77
2017-03-14T07:33:37.958Z,18.77
2017-03-14T07:34:38.501Z,18.77
2017-03-14T07:35:33.189Z,18.77
2017-03-14T07:36:34.899Z,18.74
2017-03-14T07:37:34.934Z,18.75
2017-03-14T07:38:57.241Z,18.76
2017-03-14T07:39:40.743Z,18.79
2017-03-14T07:40:27.981Z,18.81
2017-03-14T07:41:39.578Z,18.83
2017-03-14T07:42:38.706Z,18.86
2017-03-14T07:43:39.765Z,18.90
2017-03-14T07:44:41.868Z,18.93
2017-03-14T07:45:38.740Z,18.97
2017-03-14T07:46:31.371Z,18.99
2017-03-14T07:47:34.182Z,19.08
2017-03-14T07:48:38.849Z,19.05
2017-03-14T07:49:39.234Z,19.06
2017-03-14T07:50:39.548Z,19.08
2017-03-14T07:51:39.598Z,19.11
2017-03-14T07:52:34.962Z,19.13
2017-03-14T07:54:22.952Z,19.16
2017-03-14T07:55:34.875Z,19.16
2017-03-14T07:56:28.535Z,19.13
2017-03-14T07:57:43.002Z,19.19
2017-03-14T07:58:35.014Z,19.19
2017-03-14T08:00:43.715Z,19.21
2017-03-14T08:01:53.338Z,19.21
2017-03-14T08:03:29.263Z,19.22
2017-03-14T08:04:56.077Z,19.21
2017-03-14T08:05:54.123Z,19.20
2017-03-14T08:06:46.928Z,19.22
2017-03-14T08:07:40.360Z,19.19
2017-03-14T08:08:32.047Z,19.23
2017-03-14T08:09:16.564Z,19.24
2017-03-14T08:10:17.125Z,19.23
2017-03-14T08:11:34.299Z,19.23
2017-03-14T08:12:40.517Z,19.24
2017-03-14T08:13:28.111Z,19.25
2017-03-14T08:14:15.403Z,19.26
2017-03-14T08:15:15.371Z,19.25
2017-03-14T08:16:18.347Z,19.24
2017-03-14T08:17:17.840Z,19.24
2017-03-14T08:18:14.838Z,19.24
2017-03-14T08:19:14.910Z,19.25
2017-03-14T08:20:15.401Z,19.25
2017-03-14T08:21:16.481Z,19.25
2017-03-14T08:22:15.107Z,19.27
2017-03-14T08:23:16.137Z,19.27
2017-03-14T08:25:16.252Z,19.29
2017-03-14T08:26:19.125Z,19.30
2017-03-14T08:27:17.800Z,19.28
2017-03-14T08:28:16.168Z,19.28
2017-03-14T08:29:17.813Z,19.28
2017-03-14T08:30:15.486Z,19.29
2017-03-14T08:31:15.880Z,19.29
2017-03-14T08:32:18.344Z,19.30
2017-03-14T08:33:16.916Z,19.32
2017-03-14T08:34:15.694Z,19.31
2017-03-14T08:35:17.186Z,19.33
2017-03-14T08:36:16.236Z,19.31
2017-03-14T08:37:16.531Z,19.31
2017-03-14T08:38:17.075Z,19.32
2017-03-14T08:39:14.725Z,19.32
2017-03-14T08:40:16.653Z,19.33
2017-03-14T08:41:14.615Z,19.33
2017-03-14T08:42:15.744Z,19.34
2017-03-14T08:43:16.502Z,19.34
2017-03-14T08:44:16.165Z,19.34
2017-03-14T08:45:19.754Z,19.35
2017-03-14T08:46:16.485Z,19.35
2017-03-14T08:47:22.226Z,19.37
2017-03-14T08:48:16.395Z,19.36
2017-03-14T08:49:17.016Z,19.37
2017-03-14T08:50:16.919Z,19.37
2017-03-14T08:51:20.601Z,19.37
2017-03-14T08:52:21.029Z,19.42
2017-03-14T08:53:19.807Z,19.38
2017-03-14T08:54:40.140Z,19.42
2017-03-14T08:55:39.608Z,19.42
2017-03-14T08:56:40.932Z,19.42
2017-03-14T08:57:39.661Z,19.41
2017-03-14T08:58:34.294Z,19.39
2017-03-14T08:59:33.688Z,19.44
2017-03-14T09:00:21.545Z,19.41
2017-03-14T09:01:39.378Z,19.47
2017-03-14T09:02:44.219Z,19.96
2017-03-14T09:03:27.091Z,19.96
2017-03-14T09:04:33.919Z,19.66
2017-03-14T09:05:34.682Z,19.45
2017-03-14T09:06:31.868Z,19.40
2017-03-14T09:07:38.450Z,19.37
2017-03-14T09:08:27.828Z,19.35
2017-03-14T09:09:39.776Z,19.35
2017-03-14T09:10:33.560Z,19.36
2017-03-14T09:11:39.064Z,19.35
2017-03-14T09:12:32.409Z,19.36
2017-03-14T09:13:42.698Z,19.35
2017-03-14T09:14:39.213Z,19.35
2017-03-14T09:15:34.334Z,19.36
2017-03-14T09:16:37.344Z,19.36
2017-03-14T09:17:34.823Z,19.35
2017-03-14T09:18:34.644Z,19.33
2017-03-14T09:19:38.919Z,19.36
2017-03-14T09:20:34.205Z,19.30
2017-03-14T09:21:40.080Z,19.27
2017-03-14T09:22:38.729Z,19.24
2017-03-14T09:23:48.709Z,19.20
2017-03-14T09:24:33.686Z,19.17
2017-03-14T09:25:32.676Z,19.12
2017-03-14T09:26:33.281Z,19.09
2017-03-14T09:27:34.386Z,19.06
2017-03-14T09:28:34.386Z,19.03
2017-03-14T09:29:34.799Z,19.00
2017-03-14T09:30:39.710Z,18.99
2017-03-14T09:31:31.987Z,18.97
2017-03-14T09:32:33.549Z,18.97
2017-03-14T09:33:33.937Z,18.94
2017-03-14T09:34:35.904Z,18.92
2017-03-14T09:35:39.392Z,18.92
2017-03-14T09:36:33.453Z,18.92
2017-03-14T09:37:43.246Z,18.92
2017-03-14T09:38:32.769Z,18.92
2017-03-14T09:39:34.180Z,18.90
2017-03-14T09:40:35.216Z,18.89
2017-03-14T09:41:34.773Z,18.88
2017-03-14T09:42:33.257Z,18.89
2017-03-14T09:43:33.644Z,18.88
2017-03-14T09:44:38.647Z,18.88
2017-03-14T09:45:48.462Z,18.88
2017-03-14T09:46:39.483Z,18.87
2017-03-14T09:47:42.759Z,18.90
2017-03-14T09:48:26.526Z,18.87
2017-03-14T09:49:33.223Z,18.86
2017-03-14T09:50:38.639Z,18.85
2017-03-14T09:51:39.342Z,18.86
2017-03-14T09:52:35.886Z,18.85
2017-03-14T09:53:34.129Z,18.86
2017-03-14T09:54:29.739Z,18.84
2017-03-14T09:55:43.599Z,18.83
2017-03-14T09:56:27.242Z,18.83
2017-03-14T09:57:38.891Z,18.84
2017-03-14T09:58:42.938Z,18.84
2017-03-14T09:59:37.534Z,18.85
2017-03-14T10:00:33.455Z,18.84
2017-03-14T10:01:49.155Z,18.84
2017-03-14T10:02:34.225Z,18.84
2017-03-14T10:03:34.289Z,18.83
2017-03-14T10:04:35.310Z,18.84
2017-03-14T10:05:39.618Z,18.83
2017-03-14T10:06:34.323Z,18.84
2017-03-14T10:07:40.151Z,18.83
2017-03-14T10:08:39.720Z,18.82
2017-03-14T10:09:47.790Z,18.82
2017-03-14T10:10:39.021Z,18.82
2017-03-14T10:11:38.560Z,18.89
2017-03-14T10:12:38.973Z,18.90
2017-03-14T10:13:34.575Z,18.82
2017-03-14T10:14:39.271Z,18.81
2017-03-14T10:21:44.831Z,18.80
2017-03-14T10:22:32.432Z,18.80
2017-03-14T10:23:42.881Z,18.81
2017-03-14T10:24:48.265Z,18.81
2017-03-14T10:25:33.576Z,18.82
2017-03-14T10:26:29.512Z,18.82
2017-03-14T10:27:47.509Z,18.83
2017-03-14T10:28:37.161Z,18.83
2017-03-14T10:29:46.793Z,18.83
2017-03-14T10:30:41.109Z,18.83
2017-03-14T10:31:52.980Z,18.83
2017-03-14T10:32:45.535Z,18.83
2017-03-14T10:33:33.460Z,18.83
2017-03-14T10:34:43.870Z,18.83
2017-03-14T10:35:33.743Z,18.84
2017-03-14T10:36:34.685Z,18.83
2017-03-14T10:37:47.222Z,18.84
2017-03-14T10:38:35.217Z,18.83
2017-03-14T10:39:44.072Z,18.82
2017-03-14T10:40:44.348Z,18.82
2017-03-14T10:41:33.737Z,18.82
2017-03-14T10:42:34.731Z,18.81
2017-03-14T10:43:39.897Z,18.81
2017-03-14T10:44:44.626Z,18.81
2017-03-14T10:45:33.419Z,18.83
2017-03-14T10:46:34.258Z,19.36
2017-03-14T10:47:39.566Z,19.42
2017-03-14T10:48:20.566Z,19.08
2017-03-14T10:49:41.106Z,18.91
2017-03-14T10:50:42.064Z,18.87
2017-03-14T10:51:34.349Z,18.86
2017-03-14T10:52:48.077Z,18.85
2017-03-14T10:53:32.027Z,18.84
2017-03-14T10:54:43.657Z,18.83
2017-03-14T10:55:42.325Z,18.83
2017-03-14T10:56:34.615Z,18.84
2017-03-14T10:57:31.674Z,18.84
2017-03-14T10:58:34.216Z,18.85
2017-03-14T10:59:38.612Z,18.83
2017-03-14T11:00:34.285Z,19.36
2017-03-14T11:01:34.982Z,19.42
2017-03-14T11:02:34.255Z,19.48
2017-03-14T11:03:35.097Z,18.96
2017-03-14T11:04:34.613Z,18.91
2017-03-14T11:05:32.427Z,18.90
2017-03-14T11:06:43.215Z,18.89
2017-03-14T11:07:35.043Z,18.88
2017-03-14T11:08:33.356Z,18.87
2017-03-14T11:09:43.597Z,18.85
2017-03-14T11:10:35.001Z,18.85
2017-03-14T11:11:35.006Z,18.85
2017-03-14T11:12:16.650Z,18.85
2017-03-14T11:13:34.038Z,18.84
2017-03-14T11:14:49.201Z,18.84
2017-03-14T11:15:33.207Z,18.84
2017-03-14T11:16:48.806Z,18.84
2017-03-14T11:17:32.867Z,18.87
2017-03-14T11:18:27.629Z,18.85
2017-03-14T11:19:33.243Z,18.85
2017-03-14T11:20:37.760Z,18.86
2017-03-14T11:21:34.394Z,18.89
2017-03-14T11:22:33.459Z,19.40
2017-03-14T11:23:47.397Z,19.09
2017-03-14T11:24:50.387Z,18.95
2017-03-14T11:25:35.114Z,18.92
2017-03-14T11:26:29.256Z,18.90
2017-03-14T11:27:39.850Z,18.89
2017-03-14T11:28:43.639Z,18.89
2017-03-14T11:29:34.294Z,18.88
2017-03-14T11:30:28.423Z,18.87
2017-03-14T11:31:33.309Z,19.41
2017-03-14T11:32:28.822Z,19.45
2017-03-14T11:33:50.976Z,19.10
2017-03-14T11:34:46.757Z,18.95
2017-03-14T11:35:34.033Z,18.91
2017-03-14T11:36:41.489Z,18.88
2017-03-14T11:37:49.618Z,18.86
2017-03-14T11:38:38.801Z,18.85
2017-03-14T11:39:44.540Z,18.85
2017-03-14T11:40:47.350Z,18.84
2017-03-14T11:41:32.808Z,18.84
2017-03-14T11:42:44.002Z,18.85
2017-03-14T11:43:43.473Z,18.91
2017-03-14T11:44:34.790Z,18.84
2017-03-14T11:45:39.362Z,18.85
2017-03-14T11:46:35.171Z,18.84
2017-03-14T11:47:40.703Z,18.85
2017-03-14T11:48:41.307Z,18.85
2017-03-14T11:49:34.022Z,18.86
2017-03-14T11:50:47.269Z,18.86
2017-03-14T11:51:32.924Z,18.85
2017-03-14T11:52:45.178Z,18.86
2017-03-14T11:53:34.209Z,18.85
2017-03-14T11:54:33.702Z,18.84
2017-03-14T11:55:34.589Z,18.86
2017-03-14T11:56:51.991Z,18.86
2017-03-14T11:57:29.230Z,18.87
2017-03-14T11:58:40.166Z,18.86
2017-03-14T11:59:34.719Z,18.86
2017-03-14T12:00:39.951Z,18.86
2017-03-14T12:01:42.087Z,18.87
2017-03-14T12:02:32.132Z,18.88
2017-03-14T12:03:33.660Z,18.87
2017-03-14T12:04:32.713Z,18.87
2017-03-14T12:05:33.001Z,18.87
2017-03-14T12:06:42.928Z,18.87
2017-03-14T12:07:34.787Z,18.87
2017-03-14T12:08:33.035Z,18.86
2017-03-14T12:09:35.423Z,18.86
2017-03-14T12:10:33.602Z,18.89
2017-03-14T12:11:34.606Z,18.91
2017-03-14T12:12:39.558Z,18.86
2017-03-14T12:13:34.185Z,18.86
2017-03-14T12:14:35.168Z,18.88
2017-03-14T12:15:33.242Z,18.87
2017-03-14T12:16:45.923Z,18.87
2017-03-14T12:17:38.772Z,18.87
2017-03-14T12:18:34.146Z,18.87
2017-03-14T12:19:35.132Z,18.88
2017-03-14T12:20:32.173Z,18.89
2017-03-14T12:21:39.580Z,18.89
2017-03-14T12:22:34.544Z,18.89
2017-03-14T12:23:32.718Z,18.89
2017-03-14T12:24:50.383Z,18.89
2017-03-14T12:25:34.724Z,18.89
2017-03-14T12:26:44.705Z,18.89
2017-03-14T12:27:34.988Z,18.89
2017-03-14T12:28:33.095Z,18.90
2017-03-14T12:29:35.024Z,18.90
2017-03-14T12:30:34.990Z,18.90
2017-03-14T12:31:40.255Z,18.90
2017-03-14T12:32:47.241Z,18.90
2017-03-14T12:33:41.514Z,18.90
2017-03-14T12:34:33.707Z,18.90
2017-03-14T12:35:33.024Z,18.89
2017-03-14T12:36:49.550Z,18.89
2017-03-14T12:37:43.290Z,18.89
2017-03-14T12:38:40.194Z,18.90
2017-03-14T12:39:32.775Z,18.89
2017-03-14T12:40:43.420Z,18.89
2017-03-14T12:41:38.754Z,18.90
2017-03-14T12:42:33.846Z,18.90
2017-03-14T12:43:40.974Z,18.91
2017-03-14T12:44:32.422Z,18.91
2017-03-14T12:45:34.807Z,18.90
2017-03-14T12:46:41.097Z,18.90
2017-03-14T12:47:47.383Z,18.90
2017-03-14T12:48:33.919Z,18.89
2017-03-14T12:49:41.585Z,18.88
2017-03-14T12:50:39.473Z,18.90
2017-03-14T12:51:34.058Z,18.87
2017-03-14T12:52:43.299Z,18.93
2017-03-14T12:53:34.233Z,18.88
2017-03-14T12:54:35.129Z,18.88
2017-03-14T12:55:34.080Z,18.89
2017-03-14T12:56:34.979Z,18.89
2017-03-14T12:57:34.466Z,18.90
2017-03-14T12:58:43.640Z,18.90
2017-03-14T12:59:49.540Z,18.90
2017-03-14T13:00:44.762Z,18.90
2017-03-14T13:01:44.791Z,18.90
2017-03-14T13:02:32.991Z,18.90
2017-03-14T13:03:33.675Z,18.94
2017-03-14T13:04:33.656Z,18.90
2017-03-14T13:05:34.385Z,18.96
2017-03-14T13:06:41.067Z,18.91
2017-03-14T13:07:34.535Z,18.92
2017-03-14T13:08:34.363Z,18.92
2017-03-14T13:09:33.605Z,18.92
2017-03-14T13:10:50.516Z,18.92
2017-03-14T13:11:34.438Z,18.91
2017-03-14T13:12:31.936Z,18.91
2017-03-14T13:13:46.060Z,18.91
2017-03-14T13:14:35.387Z,18.90
2017-03-14T13:15:49.451Z,18.90
2017-03-14T13:16:39.732Z,18.89
2017-03-14T13:17:34.671Z,18.89
2017-03-14T13:18:34.444Z,18.90
2017-03-14T13:19:43.365Z,18.90
2017-03-14T13:20:47.819Z,18.90
2017-03-14T13:21:31.875Z,18.89
2017-03-14T13:22:43.426Z,18.90
2017-03-14T13:23:44.666Z,18.90
2017-03-14T13:24:34.505Z,18.90
2017-03-14T13:25:38.771Z,18.90
2017-03-14T13:26:34.672Z,18.88
2017-03-14T13:27:39.580Z,18.89
2017-03-14T13:28:34.439Z,18.88
2017-03-14T13:29:43.309Z,18.88